sensor_id;sensor_type;location;lat;lon;timestamp;P1;durP1;ratioP1;P2;durP2;ratioP2
59960;SDS011;55902;-37.980;-63.602;2022-12-07T00:01:41;10.30;;;1.20;;
59960;SDS011;55902;-37.980;-63.602;2022-12-07T00:04:13;7.30;;;3.13;;
59960;SDS011;55902;-37.980;-63.602;2022-12-07T00:06:42;9.93;;;2.28;;
59960;SDS011;55902;-37.980;-63.602;2022-12-07T00:09:11;18.35;;;2.00;;
59960;SDS011;55902;-37.980;-63.602;2022-12-07T00:11:40;13.20;;;1.92;;
59960;SDS011;55902;-37.980;-63.602;2022-12-07T00:14:09;8.48;;;1.10;;
59960;SDS011;55902;-37.980;-63.602;2022-12-07T00:16:38;8.05;;;1.27;;
59960;SDS011;55902;-37.980;-63.602;2022-12-07T00:19:05;8.40;;;1.00;;
59960;SDS011;55902;-37.980;-63.602;2022-12-07T00:21:35;10.90;;;1.48;;
59960;SDS011;55902;-37.980;-63.602;2022-12-07T00:24:03;12.80;;;2.10;;
59960;SDS011;55902;-37.980;-63.602;2022-12-07T00:26:32;22.77;;;1.95;;
59960;SDS011;55902;-37.980;-63.602;2022-12-07T00:29:02;15.68;;;1.65;;
59960;SDS011;55902;-37.980;-63.602;2022-12-07T00:31:32;11.45;;;1.60;;
59960;SDS011;55902;-37.980;-63.602;2022-12-07T00:34:07;13.00;;;1.58;;
59960;SDS011;55902;-37.980;-63.602;2022-12-07T00:36:39;10.80;;;1.20;;
59960;SDS011;55902;-37.980;-63.602;2022-12-07T00:39:06;5.10;;;0.90;;
59960;SDS011;55902;-37.980;-63.602;2022-12-07T00:41:34;6.07;;;1.27;;
59960;SDS011;55902;-37.980;-63.602;2022-12-07T00:44:01;6.97;;;1.00;;
59960;SDS011;55902;-37.980;-63.602;2022-12-07T00:46:28;3.83;;;0.70;;
59960;SDS011;55902;-37.980;-63.602;2022-12-07T00:48:58;5.57;;;0.90;;
59960;SDS011;55902;-37.980;-63.602;2022-12-07T00:51:26;5.80;;;1.10;;
59960;SDS011;55902;-37.980;-63.602;2022-12-07T00:53:53;4.30;;;1.52;;
59960;SDS011;55902;-37.980;-63.602;2022-12-07T00:56:21;4.47;;;1.30;;
59960;SDS011;55902;-37.980;-63.602;2022-12-07T00:58:57;4.13;;;0.80;;
59960;SDS011;55902;-37.980;-63.602;2022-12-07T01:01:26;5.18;;;0.80;;
59960;SDS011;55902;-37.980;-63.602;2022-12-07T01:03:55;7.10;;;1.17;;
59960;SDS011;55902;-37.980;-63.602;2022-12-07T01:06:22;3.47;;;0.70;;
59960;SDS011;55902;-37.980;-63.602;2022-12-07T01:08:51;6.65;;;1.10;;
59960;SDS011;55902;-37.980;-63.602;2022-12-07T01:11:19;3.10;;;0.70;;
59960;SDS011;55902;-37.980;-63.602;2022-12-07T01:14:04;9.40;;;0.93;;
59960;SDS011;55902;-37.980;-63.602;2022-12-07T01:16:32;9.63;;;1.38;;
59960;SDS011;55902;-37.980;-63.602;2022-12-07T01:18:59;8.25;;;1.90;;
59960;SDS011;55902;-37.980;-63.602;2022-12-07T01:21:28;8.20;;;1.33;;
59960;SDS011;55902;-37.980;-63.602;2022-12-07T01:24:06;4.85;;;1.20;;
59960;SDS011;55902;-37.980;-63.602;2022-12-07T01:26:35;5.97;;;1.67;;
59960;SDS011;55902;-37.980;-63.602;2022-12-07T01:29:05;7.70;;;1.90;;
59960;SDS011;55902;-37.980;-63.602;2022-12-07T01:31:32;7.68;;;1.80;;
59960;SDS011;55902;-37.980;-63.602;2022-12-07T01:33:59;9.43;;;1.80;;
59960;SDS011;55902;-37.980;-63.602;2022-12-07T01:36:28;8.05;;;1.50;;
59960;SDS011;55902;-37.980;-63.602;2022-12-07T01:39:08;5.93;;;1.70;;
59960;SDS011;55902;-37.980;-63.602;2022-12-07T01:41:38;5.50;;;1.52;;
59960;SDS011;55902;-37.980;-63.602;2022-12-07T01:46:42;6.43;;;1.27;;
59960;SDS011;55902;-37.980;-63.602;2022-12-07T01:55:02;5.00;;;1.05;;
59960;SDS011;55902;-37.980;-63.602;2022-12-07T01:57:32;5.20;;;1.10;;
59960;SDS011;55902;-37.980;-63.602;2022-12-07T02:00:03;4.68;;;0.98;;
59960;SDS011;55902;-37.980;-63.602;2022-12-07T02:02:41;7.68;;;1.48;;
59960;SDS011;55902;-37.980;-63.602;2022-12-07T02:05:12;7.28;;;1.08;;
59960;SDS011;55902;-37.980;-63.602;2022-12-07T02:07:39;9.20;;;1.20;;
59960;SDS011;55902;-37.980;-63.602;2022-12-07T02:10:16;7.95;;;1.40;;
59960;SDS011;55902;-37.980;-63.602;2022-12-07T02:12:47;10.43;;;1.55;;
59960;SDS011;55902;-37.980;-63.602;2022-12-07T02:15:19;11.82;;;2.03;;
59960;SDS011;55902;-37.980;-63.602;2022-12-07T02:17:54;7.13;;;1.40;;
59960;SDS011;55902;-37.980;-63.602;2022-12-07T02:25:39;4.80;;;1.00;;
59960;SDS011;55902;-37.980;-63.602;2022-12-07T02:28:36;4.68;;;1.10;;
59960;SDS011;55902;-37.980;-63.602;2022-12-07T02:31:23;7.82;;;1.40;;
59960;SDS011;55902;-37.980;-63.602;2022-12-07T02:33:57;5.75;;;1.27;;
59960;SDS011;55902;-37.980;-63.602;2022-12-07T02:36:41;5.75;;;1.10;;
59960;SDS011;55902;-37.980;-63.602;2022-12-07T02:41:48;5.00;;;1.30;;
59960;SDS011;55902;-37.980;-63.602;2022-12-07T02:44:21;4.30;;;1.00;;
59960;SDS011;55902;-37.980;-63.602;2022-12-07T02:46:55;5.75;;;1.20;;
59960;SDS011;55902;-37.980;-63.602;2022-12-07T02:49:29;4.70;;;1.10;;
59960;SDS011;55902;-37.980;-63.602;2022-12-07T03:10:00;5.60;;;1.00;;
59960;SDS011;55902;-37.980;-63.602;2022-12-07T03:18:46;5.75;;;1.00;;
59960;SDS011;55902;-37.980;-63.602;2022-12-07T03:21:21;7.07;;;1.23;;
59960;SDS011;55902;-37.980;-63.602;2022-12-07T03:23:54;5.85;;;1.10;;
59960;SDS011;55902;-37.980;-63.602;2022-12-07T03:42:39;11.40;;;1.30;;
59960;SDS011;55902;-37.980;-63.602;2022-12-07T03:45:06;7.65;;;1.27;;
59960;SDS011;55902;-37.980;-63.602;2022-12-07T03:50:35;5.63;;;1.10;;
59960;SDS011;55902;-37.980;-63.602;2022-12-07T04:00:03;8.30;;;1.25;;
59960;SDS011;55902;-37.980;-63.602;2022-12-07T04:02:32;7.15;;;1.30;;
59960;SDS011;55902;-37.980;-63.602;2022-12-07T04:05:00;6.22;;;1.13;;
59960;SDS011;55902;-37.980;-63.602;2022-12-07T04:07:27;6.53;;;1.10;;
59960;SDS011;55902;-37.980;-63.602;2022-12-07T04:16:58;11.52;;;1.55;;
59960;SDS011;55902;-37.980;-63.602;2022-12-07T04:19:26;7.28;;;1.10;;
59960;SDS011;55902;-37.980;-63.602;2022-12-07T04:28:04;6.20;;;1.42;;
59960;SDS011;55902;-37.980;-63.602;2022-12-07T04:30:31;5.53;;;1.25;;
59960;SDS011;55902;-37.980;-63.602;2022-12-07T04:32:59;6.60;;;1.45;;
59960;SDS011;55902;-37.980;-63.602;2022-12-07T04:35:26;6.85;;;1.50;;
59960;SDS011;55902;-37.980;-63.602;2022-12-07T04:37:54;7.07;;;1.40;;
59960;SDS011;55902;-37.980;-63.602;2022-12-07T04:40:21;6.72;;;1.17;;
59960;SDS011;55902;-37.980;-63.602;2022-12-07T04:42:48;5.78;;;1.30;;
59960;SDS011;55902;-37.980;-63.602;2022-12-07T04:45:15;6.88;;;1.35;;
59960;SDS011;55902;-37.980;-63.602;2022-12-07T04:47:42;9.90;;;1.30;;
59960;SDS011;55902;-37.980;-63.602;2022-12-07T04:50:09;8.48;;;1.20;;
59960;SDS011;55902;-37.980;-63.602;2022-12-07T04:52:36;6.13;;;1.58;;
59960;SDS011;55902;-37.980;-63.602;2022-12-07T04:55:03;7.70;;;1.45;;
59960;SDS011;55902;-37.980;-63.602;2022-12-07T04:57:30;11.30;;;1.50;;
59960;SDS011;55902;-37.980;-63.602;2022-12-07T04:59:57;9.23;;;1.27;;
59960;SDS011;55902;-37.980;-63.602;2022-12-07T05:02:24;9.40;;;1.35;;
59960;SDS011;55902;-37.980;-63.602;2022-12-07T05:04:51;10.52;;;1.30;;
59960;SDS011;55902;-37.980;-63.602;2022-12-07T05:07:18;8.98;;;1.30;;
59960;SDS011;55902;-37.980;-63.602;2022-12-07T05:09:45;5.10;;;1.30;;
59960;SDS011;55902;-37.980;-63.602;2022-12-07T05:12:12;7.47;;;1.58;;
59960;SDS011;55902;-37.980;-63.602;2022-12-07T05:14:39;8.90;;;1.63;;
59960;SDS011;55902;-37.980;-63.602;2022-12-07T05:17:06;5.20;;;1.45;;
59960;SDS011;55902;-37.980;-63.602;2022-12-07T05:19:33;3.33;;;1.17;;
59960;SDS011;55902;-37.980;-63.602;2022-12-07T05:22:00;7.38;;;1.48;;
59960;SDS011;55902;-37.980;-63.602;2022-12-07T05:24:26;9.93;;;1.52;;
59960;SDS011;55902;-37.980;-63.602;2022-12-07T05:26:53;8.88;;;1.30;;
59960;SDS011;55902;-37.980;-63.602;2022-12-07T05:29:20;7.38;;;1.67;;
59960;SDS011;55902;-37.980;-63.602;2022-12-07T05:31:47;6.10;;;1.38;;
59960;SDS011;55902;-37.980;-63.602;2022-12-07T05:34:14;5.38;;;1.45;;
59960;SDS011;55902;-37.980;-63.602;2022-12-07T05:36:41;7.70;;;1.20;;
59960;SDS011;55902;-37.980;-63.602;2022-12-07T05:39:08;8.63;;;1.30;;
59960;SDS011;55902;-37.980;-63.602;2022-12-07T05:41:35;8.90;;;1.45;;
59960;SDS011;55902;-37.980;-63.602;2022-12-07T05:44:20;5.57;;;1.27;;
59960;SDS011;55902;-37.980;-63.602;2022-12-07T05:46:47;7.95;;;1.60;;
59960;SDS011;55902;-37.980;-63.602;2022-12-07T05:49:14;13.25;;;1.65;;
59960;SDS011;55902;-37.980;-63.602;2022-12-07T05:51:41;5.20;;;1.40;;
59960;SDS011;55902;-37.980;-63.602;2022-12-07T05:54:08;5.85;;;1.20;;
59960;SDS011;55902;-37.980;-63.602;2022-12-07T05:56:35;5.25;;;1.52;;
59960;SDS011;55902;-37.980;-63.602;2022-12-07T05:59:02;6.55;;;1.40;;
59960;SDS011;55902;-37.980;-63.602;2022-12-07T06:01:48;9.70;;;1.40;;
59960;SDS011;55902;-37.980;-63.602;2022-12-07T06:04:19;8.18;;;1.60;;
59960;SDS011;55902;-37.980;-63.602;2022-12-07T06:06:47;5.03;;;1.30;;
59960;SDS011;55902;-37.980;-63.602;2022-12-07T06:09:14;5.38;;;1.38;;
59960;SDS011;55902;-37.980;-63.602;2022-12-07T06:11:41;6.13;;;1.48;;
59960;SDS011;55902;-37.980;-63.602;2022-12-07T06:14:26;8.35;;;1.73;;
59960;SDS011;55902;-37.980;-63.602;2022-12-07T06:16:53;10.95;;;4.20;;
59960;SDS011;55902;-37.980;-63.602;2022-12-07T06:19:21;17.52;;;4.43;;
59960;SDS011;55902;-37.980;-63.602;2022-12-07T06:21:47;8.70;;;2.90;;
59960;SDS011;55902;-37.980;-63.602;2022-12-07T06:24:15;8.23;;;2.28;;
59960;SDS011;55902;-37.980;-63.602;2022-12-07T06:26:43;8.88;;;1.80;;
59960;SDS011;55902;-37.980;-63.602;2022-12-07T06:29:10;6.03;;;1.73;;
59960;SDS011;55902;-37.980;-63.602;2022-12-07T06:31:38;7.47;;;2.15;;
59960;SDS011;55902;-37.980;-63.602;2022-12-07T06:34:06;8.38;;;1.30;;
59960;SDS011;55902;-37.980;-63.602;2022-12-07T06:36:41;9.32;;;1.70;;
59960;SDS011;55902;-37.980;-63.602;2022-12-07T06:39:08;7.57;;;1.98;;
59960;SDS011;55902;-37.980;-63.602;2022-12-07T06:41:36;8.38;;;2.00;;
59960;SDS011;55902;-37.980;-63.602;2022-12-07T06:44:07;11.85;;;2.05;;
59960;SDS011;55902;-37.980;-63.602;2022-12-07T06:46:34;5.88;;;1.33;;
59960;SDS011;55902;-37.980;-63.602;2022-12-07T06:49:01;11.73;;;1.70;;
59960;SDS011;55902;-37.980;-63.602;2022-12-07T06:51:29;4.70;;;1.20;;
59960;SDS011;55902;-37.980;-63.602;2022-12-07T06:53:56;9.32;;;2.13;;
59960;SDS011;55902;-37.980;-63.602;2022-12-07T06:56:23;8.50;;;2.70;;
59960;SDS011;55902;-37.980;-63.602;2022-12-07T06:58:50;13.02;;;3.45;;
59960;SDS011;55902;-37.980;-63.602;2022-12-07T07:01:17;13.43;;;3.67;;
59960;SDS011;55902;-37.980;-63.602;2022-12-07T07:03:45;14.43;;;3.03;;
59960;SDS011;55902;-37.980;-63.602;2022-12-07T07:06:12;8.75;;;2.50;;
59960;SDS011;55902;-37.980;-63.602;2022-12-07T07:08:39;9.32;;;2.03;;
59960;SDS011;55902;-37.980;-63.602;2022-12-07T07:11:07;8.30;;;2.10;;
59960;SDS011;55902;-37.980;-63.602;2022-12-07T07:13:34;11.93;;;2.80;;
59960;SDS011;55902;-37.980;-63.602;2022-12-07T07:16:01;10.55;;;2.40;;
59960;SDS011;55902;-37.980;-63.602;2022-12-07T07:18:28;6.93;;;1.90;;
59960;SDS011;55902;-37.980;-63.602;2022-12-07T07:20:55;7.90;;;1.50;;
59960;SDS011;55902;-37.980;-63.602;2022-12-07T07:23:22;4.50;;;1.13;;
59960;SDS011;55902;-37.980;-63.602;2022-12-07T07:25:50;2.85;;;1.00;;
59960;SDS011;55902;-37.980;-63.602;2022-12-07T07:28:17;4.38;;;1.00;;
59960;SDS011;55902;-37.980;-63.602;2022-12-07T07:30:44;5.75;;;1.10;;
59960;SDS011;55902;-37.980;-63.602;2022-12-07T07:33:11;5.55;;;1.13;;
59960;SDS011;55902;-37.980;-63.602;2022-12-07T07:35:38;8.05;;;1.20;;
59960;SDS011;55902;-37.980;-63.602;2022-12-07T07:38:06;5.53;;;1.20;;
59960;SDS011;55902;-37.980;-63.602;2022-12-07T07:40:33;5.45;;;1.10;;
59960;SDS011;55902;-37.980;-63.602;2022-12-07T07:43:02;3.65;;;1.20;;
59960;SDS011;55902;-37.980;-63.602;2022-12-07T07:45:29;6.45;;;1.23;;
59960;SDS011;55902;-37.980;-63.602;2022-12-07T07:47:56;7.18;;;1.17;;
59960;SDS011;55902;-37.980;-63.602;2022-12-07T07:50:23;5.47;;;1.20;;
59960;SDS011;55902;-37.980;-63.602;2022-12-07T07:52:49;6.43;;;1.38;;
59960;SDS011;55902;-37.980;-63.602;2022-12-07T07:55:17;6.82;;;1.30;;
59960;SDS011;55902;-37.980;-63.602;2022-12-07T07:57:44;7.70;;;1.70;;
59960;SDS011;55902;-37.980;-63.602;2022-12-07T08:00:12;10.20;;;2.50;;
59960;SDS011;55902;-37.980;-63.602;2022-12-07T08:02:41;9.68;;;3.28;;
59960;SDS011;55902;-37.980;-63.602;2022-12-07T08:15:14;5.28;;;1.60;;
59960;SDS011;55902;-37.980;-63.602;2022-12-07T08:17:41;5.57;;;1.10;;
59960;SDS011;55902;-37.980;-63.602;2022-12-07T08:20:08;4.28;;;1.35;;
59960;SDS011;55902;-37.980;-63.602;2022-12-07T08:22:35;3.13;;;1.10;;
59960;SDS011;55902;-37.980;-63.602;2022-12-07T08:25:02;5.10;;;1.10;;
59960;SDS011;55902;-37.980;-63.602;2022-12-07T08:27:29;3.90;;;1.25;;
59960;SDS011;55902;-37.980;-63.602;2022-12-07T08:29:56;5.28;;;1.00;;
59960;SDS011;55902;-37.980;-63.602;2022-12-07T08:32:23;5.97;;;1.20;;
59960;SDS011;55902;-37.980;-63.602;2022-12-07T08:34:49;3.50;;;1.20;;
59960;SDS011;55902;-37.980;-63.602;2022-12-07T08:37:18;5.93;;;1.10;;
59960;SDS011;55902;-37.980;-63.602;2022-12-07T08:39:45;4.45;;;1.00;;
59960;SDS011;55902;-37.980;-63.602;2022-12-07T08:42:12;4.90;;;1.02;;
59960;SDS011;55902;-37.980;-63.602;2022-12-07T08:44:39;3.20;;;1.08;;
59960;SDS011;55902;-37.980;-63.602;2022-12-07T08:47:06;3.50;;;1.10;;
59960;SDS011;55902;-37.980;-63.602;2022-12-07T08:49:36;4.43;;;1.15;;
59960;SDS011;55902;-37.980;-63.602;2022-12-07T08:52:07;3.10;;;1.20;;
59960;SDS011;55902;-37.980;-63.602;2022-12-07T08:54:35;5.60;;;1.17;;
59960;SDS011;55902;-37.980;-63.602;2022-12-07T08:57:04;6.47;;;1.30;;
59960;SDS011;55902;-37.980;-63.602;2022-12-07T08:59:32;5.93;;;1.17;;
59960;SDS011;55902;-37.980;-63.602;2022-12-07T09:02:01;4.30;;;1.10;;
59960;SDS011;55902;-37.980;-63.602;2022-12-07T09:04:29;5.10;;;1.10;;
59960;SDS011;55902;-37.980;-63.602;2022-12-07T09:06:56;7.22;;;1.08;;
59960;SDS011;55902;-37.980;-63.602;2022-12-07T09:09:24;2.58;;;1.10;;
59960;SDS011;55902;-37.980;-63.602;2022-12-07T09:11:51;5.40;;;1.48;;
59960;SDS011;55902;-37.980;-63.602;2022-12-07T09:14:18;4.28;;;1.00;;
59960;SDS011;55902;-37.980;-63.602;2022-12-07T09:16:45;2.92;;;1.10;;
59960;SDS011;55902;-37.980;-63.602;2022-12-07T09:19:12;5.38;;;1.02;;
59960;SDS011;55902;-37.980;-63.602;2022-12-07T09:21:39;6.15;;;1.30;;
59960;SDS011;55902;-37.980;-63.602;2022-12-07T09:24:06;5.05;;;1.58;;
59960;SDS011;55902;-37.980;-63.602;2022-12-07T09:26:34;4.95;;;1.40;;
59960;SDS011;55902;-37.980;-63.602;2022-12-07T09:29:02;6.53;;;1.30;;
59960;SDS011;55902;-37.980;-63.602;2022-12-07T09:31:29;4.72;;;1.73;;
59960;SDS011;55902;-37.980;-63.602;2022-12-07T09:33:59;4.10;;;0.90;;
59960;SDS011;55902;-37.980;-63.602;2022-12-07T09:38:57;5.00;;;1.10;;
59960;SDS011;55902;-37.980;-63.602;2022-12-07T09:41:24;3.17;;;1.10;;
59960;SDS011;55902;-37.980;-63.602;2022-12-07T09:43:53;2.90;;;0.95;;
59960;SDS011;55902;-37.980;-63.602;2022-12-07T09:46:28;5.22;;;1.00;;
59960;SDS011;55902;-37.980;-63.602;2022-12-07T09:49:05;2.72;;;1.00;;
59960;SDS011;55902;-37.980;-63.602;2022-12-07T09:51:44;4.57;;;0.90;;
59960;SDS011;55902;-37.980;-63.602;2022-12-07T09:54:12;6.38;;;1.20;;
59960;SDS011;55902;-37.980;-63.602;2022-12-07T09:56:41;6.90;;;1.40;;
59960;SDS011;55902;-37.980;-63.602;2022-12-07T09:59:12;5.85;;;1.10;;
59960;SDS011;55902;-37.980;-63.602;2022-12-07T10:01:44;4.72;;;0.90;;
59960;SDS011;55902;-37.980;-63.602;2022-12-07T10:04:22;4.18;;;1.10;;
59960;SDS011;55902;-37.980;-63.602;2022-12-07T10:06:52;5.50;;;1.15;;
59960;SDS011;55902;-37.980;-63.602;2022-12-07T10:09:20;4.60;;;1.00;;
59960;SDS011;55902;-37.980;-63.602;2022-12-07T10:12:04;5.78;;;1.00;;
59960;SDS011;55902;-37.980;-63.602;2022-12-07T10:14:40;4.63;;;1.08;;
59960;SDS011;55902;-37.980;-63.602;2022-12-07T10:20:33;4.83;;;1.20;;
59960;SDS011;55902;-37.980;-63.602;2022-12-07T10:23:13;5.65;;;1.27;;
59960;SDS011;55902;-37.980;-63.602;2022-12-07T10:25:42;5.93;;;1.42;;
59960;SDS011;55902;-37.980;-63.602;2022-12-07T10:28:14;5.60;;;1.33;;
59960;SDS011;55902;-37.980;-63.602;2022-12-07T10:30:51;7.93;;;1.20;;
59960;SDS011;55902;-37.980;-63.602;2022-12-07T10:33:29;4.35;;;1.30;;
59960;SDS011;55902;-37.980;-63.602;2022-12-07T10:39:04;5.15;;;1.23;;
59960;SDS011;55902;-37.980;-63.602;2022-12-07T10:41:56;6.25;;;1.15;;
59960;SDS011;55902;-37.980;-63.602;2022-12-07T10:44:26;6.50;;;1.38;;
59960;SDS011;55902;-37.980;-63.602;2022-12-07T11:09:26;2.45;;;1.10;;
59960;SDS011;55902;-37.980;-63.602;2022-12-07T11:12:15;5.13;;;1.25;;
59960;SDS011;55902;-37.980;-63.602;2022-12-07T11:14:50;7.55;;;1.48;;
59960;SDS011;55902;-37.980;-63.602;2022-12-07T11:25:49;3.15;;;1.27;;
59960;SDS011;55902;-37.980;-63.602;2022-12-07T11:31:33;7.25;;;1.40;;
59960;SDS011;55902;-37.980;-63.602;2022-12-07T11:34:26;4.43;;;1.30;;
59960;SDS011;55902;-37.980;-63.602;2022-12-07T11:36:58;5.40;;;1.20;;
59960;SDS011;55902;-37.980;-63.602;2022-12-07T11:39:44;6.28;;;1.45;;
59960;SDS011;55902;-37.980;-63.602;2022-12-07T11:42:25;6.03;;;1.50;;
59960;SDS011;55902;-37.980;-63.602;2022-12-07T11:44:57;3.47;;;1.20;;
59960;SDS011;55902;-37.980;-63.602;2022-12-07T11:47:41;3.85;;;1.27;;
59960;SDS011;55902;-37.980;-63.602;2022-12-07T11:52:58;12.60;;;2.17;;
59960;SDS011;55902;-37.980;-63.602;2022-12-07T11:55:49;12.77;;;2.03;;
59960;SDS011;55902;-37.980;-63.602;2022-12-07T12:01:18;4.18;;;1.30;;
59960;SDS011;55902;-37.980;-63.602;2022-12-07T12:03:54;6.47;;;1.40;;
59960;SDS011;55902;-37.980;-63.602;2022-12-07T12:06:35;7.18;;;1.25;;
59960;SDS011;55902;-37.980;-63.602;2022-12-07T12:20:45;2.78;;;1.10;;
59960;SDS011;55902;-37.980;-63.602;2022-12-07T12:25:59;4.38;;;1.30;;
59960;SDS011;55902;-37.980;-63.602;2022-12-07T12:31:16;5.47;;;1.40;;
59960;SDS011;55902;-37.980;-63.602;2022-12-07T12:34:30;5.43;;;1.50;;
59960;SDS011;55902;-37.980;-63.602;2022-12-07T12:36:59;5.68;;;1.35;;
59960;SDS011;55902;-37.980;-63.602;2022-12-07T12:39:26;3.92;;;1.55;;
59960;SDS011;55902;-37.980;-63.602;2022-12-07T12:41:54;3.70;;;1.50;;
59960;SDS011;55902;-37.980;-63.602;2022-12-07T12:46:53;6.93;;;1.40;;
59960;SDS011;55902;-37.980;-63.602;2022-12-07T12:51:53;5.60;;;3.03;;
59960;SDS011;55902;-37.980;-63.602;2022-12-07T12:54:58;4.00;;;1.52;;
59960;SDS011;55902;-37.980;-63.602;2022-12-07T12:57:35;3.78;;;1.40;;
59960;SDS011;55902;-37.980;-63.602;2022-12-07T13:05:25;5.38;;;1.30;;
59960;SDS011;55902;-37.980;-63.602;2022-12-07T13:10:43;5.97;;;1.17;;
59960;SDS011;55902;-37.980;-63.602;2022-12-07T13:18:36;4.50;;;1.42;;
59960;SDS011;55902;-37.980;-63.602;2022-12-07T13:34:04;13.13;;;1.80;;
59960;SDS011;55902;-37.980;-63.602;2022-12-07T13:36:51;10.57;;;2.20;;
59960;SDS011;55902;-37.980;-63.602;2022-12-07T13:39:19;4.15;;;1.42;;
59960;SDS011;55902;-37.980;-63.602;2022-12-07T13:41:52;4.63;;;1.42;;
59960;SDS011;55902;-37.980;-63.602;2022-12-07T13:44:23;5.55;;;1.67;;
59960;SDS011;55902;-37.980;-63.602;2022-12-07T13:46:53;6.60;;;1.45;;
59960;SDS011;55902;-37.980;-63.602;2022-12-07T13:49:46;5.03;;;1.35;;
59960;SDS011;55902;-37.980;-63.602;2022-12-07T13:52:20;6.45;;;1.90;;
59960;SDS011;55902;-37.980;-63.602;2022-12-07T13:55:01;5.90;;;1.90;;
59960;SDS011;55902;-37.980;-63.602;2022-12-07T13:57:41;7.88;;;1.73;;
59960;SDS011;55902;-37.980;-63.602;2022-12-07T14:03:00;9.65;;;2.38;;
59960;SDS011;55902;-37.980;-63.602;2022-12-07T14:05:28;9.10;;;1.80;;
59960;SDS011;55902;-37.980;-63.602;2022-12-07T14:08:00;10.45;;;2.08;;
59960;SDS011;55902;-37.980;-63.602;2022-12-07T14:10:28;7.10;;;1.67;;
59960;SDS011;55902;-37.980;-63.602;2022-12-07T14:13:01;8.25;;;1.52;;
59960;SDS011;55902;-37.980;-63.602;2022-12-07T14:15:49;6.13;;;1.30;;
59960;SDS011;55902;-37.980;-63.602;2022-12-07T14:21:23;8.48;;;1.58;;
59960;SDS011;55902;-37.980;-63.602;2022-12-07T14:24:11;5.55;;;1.58;;
59960;SDS011;55902;-37.980;-63.602;2022-12-07T14:26:44;8.75;;;1.90;;
59960;SDS011;55902;-37.980;-63.602;2022-12-07T14:31:51;6.82;;;2.25;;
59960;SDS011;55902;-37.980;-63.602;2022-12-07T14:34:22;13.55;;;2.17;;
59960;SDS011;55902;-37.980;-63.602;2022-12-07T14:36:50;6.32;;;1.50;;
59960;SDS011;55902;-37.980;-63.602;2022-12-07T14:39:17;5.55;;;1.40;;
59960;SDS011;55902;-37.980;-63.602;2022-12-07T14:41:44;5.93;;;1.90;;
59960;SDS011;55902;-37.980;-63.602;2022-12-07T14:44:21;7.18;;;1.75;;
59960;SDS011;55902;-37.980;-63.602;2022-12-07T14:47:27;6.43;;;1.50;;
59960;SDS011;55902;-37.980;-63.602;2022-12-07T14:49:54;4.40;;;1.42;;
59960;SDS011;55902;-37.980;-63.602;2022-12-07T14:52:22;5.45;;;1.48;;
59960;SDS011;55902;-37.980;-63.602;2022-12-07T14:57:23;6.50;;;1.38;;
59960;SDS011;55902;-37.980;-63.602;2022-12-07T14:59:50;8.30;;;1.70;;
59960;SDS011;55902;-37.980;-63.602;2022-12-07T15:02:17;7.22;;;1.73;;
59960;SDS011;55902;-37.980;-63.602;2022-12-07T15:04:44;8.98;;;1.60;;
59960;SDS011;55902;-37.980;-63.602;2022-12-07T15:07:18;6.57;;;1.30;;
59960;SDS011;55902;-37.980;-63.602;2022-12-07T15:09:47;9.05;;;1.63;;
59960;SDS011;55902;-37.980;-63.602;2022-12-07T15:12:14;6.63;;;1.42;;
59960;SDS011;55902;-37.980;-63.602;2022-12-07T15:14:41;8.63;;;1.80;;
59960;SDS011;55902;-37.980;-63.602;2022-12-07T15:17:10;7.50;;;1.40;;
59960;SDS011;55902;-37.980;-63.602;2022-12-07T15:19:38;10.68;;;2.00;;
59960;SDS011;55902;-37.980;-63.602;2022-12-07T15:22:05;8.85;;;1.70;;
59960;SDS011;55902;-37.980;-63.602;2022-12-07T15:24:37;11.23;;;1.80;;
59960;SDS011;55902;-37.980;-63.602;2022-12-07T15:27:04;5.88;;;1.40;;
59960;SDS011;55902;-37.980;-63.602;2022-12-07T15:29:31;5.25;;;1.30;;
59960;SDS011;55902;-37.980;-63.602;2022-12-07T15:31:58;8.63;;;1.70;;
59960;SDS011;55902;-37.980;-63.602;2022-12-07T15:34:26;5.43;;;1.50;;
59960;SDS011;55902;-37.980;-63.602;2022-12-07T15:36:54;7.68;;;1.40;;
59960;SDS011;55902;-37.980;-63.602;2022-12-07T15:39:21;5.85;;;1.48;;
59960;SDS011;55902;-37.980;-63.602;2022-12-07T15:41:48;5.20;;;1.42;;
59960;SDS011;55902;-37.980;-63.602;2022-12-07T15:44:15;7.25;;;1.63;;
59960;SDS011;55902;-37.980;-63.602;2022-12-07T15:47:00;8.10;;;1.30;;
59960;SDS011;55902;-37.980;-63.602;2022-12-07T15:49:27;6.28;;;1.50;;
59960;SDS011;55902;-37.980;-63.602;2022-12-07T15:51:55;9.25;;;1.50;;
59960;SDS011;55902;-37.980;-63.602;2022-12-07T15:54:23;6.47;;;1.38;;
59960;SDS011;55902;-37.980;-63.602;2022-12-07T15:56:55;15.75;;;1.92;;
59960;SDS011;55902;-37.980;-63.602;2022-12-07T15:59:23;5.97;;;1.40;;
59960;SDS011;55902;-37.980;-63.602;2022-12-07T16:01:51;10.13;;;1.50;;
59960;SDS011;55902;-37.980;-63.602;2022-12-07T16:04:18;6.78;;;1.50;;
59960;SDS011;55902;-37.980;-63.602;2022-12-07T16:06:45;6.07;;;1.40;;
59960;SDS011;55902;-37.980;-63.602;2022-12-07T16:09:12;5.30;;;1.33;;
59960;SDS011;55902;-37.980;-63.602;2022-12-07T16:11:40;7.82;;;1.70;;
59960;SDS011;55902;-37.980;-63.602;2022-12-07T16:14:07;3.97;;;1.25;;
59960;SDS011;55902;-37.980;-63.602;2022-12-07T16:16:34;6.35;;;1.40;;
59960;SDS011;55902;-37.980;-63.602;2022-12-07T16:19:01;8.50;;;1.20;;
59960;SDS011;55902;-37.980;-63.602;2022-12-07T16:21:28;9.52;;;1.77;;
59960;SDS011;55902;-37.980;-63.602;2022-12-07T16:23:57;4.90;;;1.38;;
59960;SDS011;55902;-37.980;-63.602;2022-12-07T16:26:27;7.20;;;1.52;;
59960;SDS011;55902;-37.980;-63.602;2022-12-07T16:28:54;8.77;;;1.48;;
59960;SDS011;55902;-37.980;-63.602;2022-12-07T16:31:23;9.73;;;1.42;;
59960;SDS011;55902;-37.980;-63.602;2022-12-07T16:33:55;5.40;;;1.30;;
59960;SDS011;55902;-37.980;-63.602;2022-12-07T16:36:24;5.55;;;1.27;;
59960;SDS011;55902;-37.980;-63.602;2022-12-07T16:38:52;9.00;;;1.58;;
59960;SDS011;55902;-37.980;-63.602;2022-12-07T16:41:19;11.95;;;1.73;;
59960;SDS011;55902;-37.980;-63.602;2022-12-07T16:43:47;12.18;;;1.95;;
59960;SDS011;55902;-37.980;-63.602;2022-12-07T16:46:16;8.40;;;1.45;;
59960;SDS011;55902;-37.980;-63.602;2022-12-07T16:48:43;6.72;;;1.40;;
59960;SDS011;55902;-37.980;-63.602;2022-12-07T16:51:11;4.32;;;1.38;;
59960;SDS011;55902;-37.980;-63.602;2022-12-07T16:53:41;6.35;;;1.50;;
59960;SDS011;55902;-37.980;-63.602;2022-12-07T16:56:12;4.63;;;1.38;;
59960;SDS011;55902;-37.980;-63.602;2022-12-07T16:58:41;7.93;;;1.53;;
59960;SDS011;55902;-37.980;-63.602;2022-12-07T17:01:09;6.07;;;1.35;;
59960;SDS011;55902;-37.980;-63.602;2022-12-07T17:03:41;4.50;;;1.20;;
59960;SDS011;55902;-37.980;-63.602;2022-12-07T17:06:17;8.57;;;1.20;;
59960;SDS011;55902;-37.980;-63.602;2022-12-07T17:08:46;11.98;;;1.50;;
59960;SDS011;55902;-37.980;-63.602;2022-12-07T17:11:31;6.72;;;1.70;;
59960;SDS011;55902;-37.980;-63.602;2022-12-07T17:13:58;8.48;;;1.50;;
59960;SDS011;55902;-37.980;-63.602;2022-12-07T17:16:43;5.00;;;1.23;;
59960;SDS011;55902;-37.980;-63.602;2022-12-07T17:19:11;4.97;;;1.30;;
59960;SDS011;55902;-37.980;-63.602;2022-12-07T17:21:41;7.07;;;1.40;;
59960;SDS011;55902;-37.980;-63.602;2022-12-07T17:24:09;5.78;;;1.20;;
59960;SDS011;55902;-37.980;-63.602;2022-12-07T17:26:39;8.38;;;1.20;;
59960;SDS011;55902;-37.980;-63.602;2022-12-07T17:29:07;10.48;;;1.50;;
59960;SDS011;55902;-37.980;-63.602;2022-12-07T17:31:36;10.52;;;1.67;;
59960;SDS011;55902;-37.980;-63.602;2022-12-07T17:34:03;7.05;;;1.17;;
59960;SDS011;55902;-37.980;-63.602;2022-12-07T17:36:35;7.77;;;1.37;;
59960;SDS011;55902;-37.980;-63.602;2022-12-07T17:39:06;5.28;;;1.20;;
59960;SDS011;55902;-37.980;-63.602;2022-12-07T17:41:34;4.72;;;1.40;;
59960;SDS011;55902;-37.980;-63.602;2022-12-07T17:44:21;6.00;;;1.25;;
59960;SDS011;55902;-37.980;-63.602;2022-12-07T17:46:49;6.22;;;1.23;;